sensor_id;sensor_type;location;lat;lon;timestamp;temperature;humidity
81895;DHT22;71358;45.642;13.758;2023-07-20T00:00:50;29.90;53.00
81895;DHT22;71358;45.642;13.758;2023-07-20T00:03:19;29.90;52.70
81895;DHT22;71358;45.642;13.758;2023-07-20T00:05:49;29.80;52.40
81895;DHT22;71358;45.642;13.758;2023-07-20T00:08:16;29.80;52.10
81895;DHT22;71358;45.642;13.758;2023-07-20T00:10:42;29.80;51.90
81895;DHT22;71358;45.642;13.758;2023-07-20T00:13:09;29.80;51.90
81895;DHT22;71358;45.642;13.758;2023-07-20T00:15:35;29.80;51.70
81895;DHT22;71358;45.642;13.758;2023-07-20T00:18:01;29.70;51.60
81895;DHT22;71358;45.642;13.758;2023-07-20T00:20:27;29.70;51.60
81895;DHT22;71358;45.642;13.758;2023-07-20T00:22:52;29.70;51.60
81895;DHT22;71358;45.642;13.758;2023-07-20T00:25:20;29.70;51.70
81895;DHT22;71358;45.642;13.758;2023-07-20T00:27:46;29.70;51.70
81895;DHT22;71358;45.642;13.758;2023-07-20T00:30:12;29.70;51.80
81895;DHT22;71358;45.642;13.758;2023-07-20T00:32:38;29.70;51.80
81895;DHT22;71358;45.642;13.758;2023-07-20T00:35:04;29.70;51.80
81895;DHT22;71358;45.642;13.758;2023-07-20T00:37:30;29.70;51.90
81895;DHT22;71358;45.642;13.758;2023-07-20T00:39:56;29.70;52.10
81895;DHT22;71358;45.642;13.758;2023-07-20T00:42:22;29.70;52.30
81895;DHT22;71358;45.642;13.758;2023-07-20T00:44:48;29.60;52.40
81895;DHT22;71358;45.642;13.758;2023-07-20T00:47:14;29.70;52.40
81895;DHT22;71358;45.642;13.758;2023-07-20T00:49:39;29.70;52.40
81895;DHT22;71358;45.642;13.758;2023-07-20T00:52:07;29.60;52.30
81895;DHT22;71358;45.642;13.758;2023-07-20T00:54:33;29.70;52.30
81895;DHT22;71358;45.642;13.758;2023-07-20T00:57:01;29.60;52.10
81895;DHT22;71358;45.642;13.758;2023-07-20T00:59:27;29.60;52.10
81895;DHT22;71358;45.642;13.758;2023-07-20T01:01:53;29.60;52.10
81895;DHT22;71358;45.642;13.758;2023-07-20T01:04:19;29.70;52.30
81895;DHT22;71358;45.642;13.758;2023-07-20T01:07:23;29.60;52.30
81895;DHT22;71358;45.642;13.758;2023-07-20T01:10:10;29.70;52.50
81895;DHT22;71358;45.642;13.758;2023-07-20T01:12:47;29.70;52.70
81895;DHT22;71358;45.642;13.758;2023-07-20T01:15:13;29.70;52.80
81895;DHT22;71358;45.642;13.758;2023-07-20T01:17:39;29.60;52.90
81895;DHT22;71358;45.642;13.758;2023-07-20T01:20:07;29.70;53.10
81895;DHT22;71358;45.642;13.758;2023-07-20T01:31:07;29.60;53.20
81895;DHT22;71358;45.642;13.758;2023-07-20T01:33:34;29.70;53.30
81895;DHT22;71358;45.642;13.758;2023-07-20T01:36:00;29.60;53.20
81895;DHT22;71358;45.642;13.758;2023-07-20T01:38:28;29.70;53.30
81895;DHT22;71358;45.642;13.758;2023-07-20T01:40:55;29.60;53.20
81895;DHT22;71358;45.642;13.758;2023-07-20T01:43:21;29.70;53.30
81895;DHT22;71358;45.642;13.758;2023-07-20T01:45:47;29.60;53.20
81895;DHT22;71358;45.642;13.758;2023-07-20T01:48:13;29.60;53.10
81895;DHT22;71358;45.642;13.758;2023-07-20T01:50:39;29.70;53.20
81895;DHT22;71358;45.642;13.758;2023-07-20T01:53:05;29.60;52.90
81895;DHT22;71358;45.642;13.758;2023-07-20T01:55:30;29.60;52.80
81895;DHT22;71358;45.642;13.758;2023-07-20T01:57:56;29.60;52.80
81895;DHT22;71358;45.642;13.758;2023-07-20T02:00:22;29.60;52.80
81895;DHT22;71358;45.642;13.758;2023-07-20T02:02:50;29.60;52.80
81895;DHT22;71358;45.642;13.758;2023-07-20T02:05:16;29.60;52.80
81895;DHT22;71358;45.642;13.758;2023-07-20T02:07:43;29.60;52.70
81895;DHT22;71358;45.642;13.758;2023-07-20T02:10:09;29.60;52.70
81895;DHT22;71358;45.642;13.758;2023-07-20T02:12:35;29.60;52.70
81895;DHT22;71358;45.642;13.758;2023-07-20T02:15:02;29.60;52.70
81895;DHT22;71358;45.642;13.758;2023-07-20T02:17:28;29.50;52.60
81895;DHT22;71358;45.642;13.758;2023-07-20T02:19:55;29.50;52.60
81895;DHT22;71358;45.642;13.758;2023-07-20T02:22:21;29.50;52.60
81895;DHT22;71358;45.642;13.758;2023-07-20T02:24:47;29.50;52.60
81895;DHT22;71358;45.642;13.758;2023-07-20T02:27:13;29.50;52.60
81895;DHT22;71358;45.642;13.758;2023-07-20T02:29:41;29.50;52.50
81895;DHT22;71358;45.642;13.758;2023-07-20T02:32:08;29.50;52.50
81895;DHT22;71358;45.642;13.758;2023-07-20T02:34:35;29.40;52.40
81895;DHT22;71358;45.642;13.758;2023-07-20T02:37:00;29.40;52.40
81895;DHT22;71358;45.642;13.758;2023-07-20T02:39:29;29.40;52.30
81895;DHT22;71358;45.642;13.758;2023-07-20T02:41:56;29.40;52.30
81895;DHT22;71358;45.642;13.758;2023-07-20T02:44:22;29.40;52.30
81895;DHT22;71358;45.642;13.758;2023-07-20T02:46:48;29.40;52.50
81895;DHT22;71358;45.642;13.758;2023-07-20T02:49:16;29.30;52.50
81895;DHT22;71358;45.642;13.758;2023-07-20T02:51:42;29.40;52.50
81895;DHT22;71358;45.642;13.758;2023-07-20T02:54:08;29.30;52.50
81895;DHT22;71358;45.642;13.758;2023-07-20T02:56:34;29.40;52.50
81895;DHT22;71358;45.642;13.758;2023-07-20T02:59:01;29.40;52.50
81895;DHT22;71358;45.642;13.758;2023-07-20T03:01:27;29.40;52.40
81895;DHT22;71358;45.642;13.758;2023-07-20T03:03:55;29.40;52.40
81895;DHT22;71358;45.642;13.758;2023-07-20T03:06:21;29.40;52.40
81895;DHT22;71358;45.642;13.758;2023-07-20T03:08:47;29.30;52.30
81895;DHT22;71358;45.642;13.758;2023-07-20T03:11:14;29.30;52.30
81895;DHT22;71358;45.642;13.758;2023-07-20T03:13:43;29.40;52.40
81895;DHT22;71358;45.642;13.758;2023-07-20T03:16:11;29.40;52.40
81895;DHT22;71358;45.642;13.758;2023-07-20T03:18:38;29.40;52.40
81895;DHT22;71358;45.642;13.758;2023-07-20T03:21:05;29.40;52.40
81895;DHT22;71358;45.642;13.758;2023-07-20T03:23:31;29.40;52.50
81895;DHT22;71358;45.642;13.758;2023-07-20T03:25:57;29.40;52.50
81895;DHT22;71358;45.642;13.758;2023-07-20T03:28:23;29.40;52.60
81895;DHT22;71358;45.642;13.758;2023-07-20T03:30:55;29.40;52.60
81895;DHT22;71358;45.642;13.758;2023-07-20T03:33:31;29.40;52.60
81895;DHT22;71358;45.642;13.758;2023-07-20T03:35:58;29.40;52.60
81895;DHT22;71358;45.642;13.758;2023-07-20T03:38:24;29.40;52.60
81895;DHT22;71358;45.642;13.758;2023-07-20T03:40:55;29.40;52.50
81895;DHT22;71358;45.642;13.758;2023-07-20T03:43:23;29.40;52.50
81895;DHT22;71358;45.642;13.758;2023-07-20T03:45:49;29.40;52.50
81895;DHT22;71358;45.642;13.758;2023-07-20T03:48:22;29.30;53.10
81895;DHT22;71358;45.642;13.758;2023-07-20T03:50:51;29.40;52.40
81895;DHT22;71358;45.642;13.758;2023-07-20T03:53:17;29.40;52.50
81895;DHT22;71358;45.642;13.758;2023-07-20T03:55:51;29.40;52.50
81895;DHT22;71358;45.642;13.758;2023-07-20T03:58:18;29.40;52.50
81895;DHT22;71358;45.642;13.758;2023-07-20T04:00:48;29.40;52.50
81895;DHT22;71358;45.642;13.758;2023-07-20T04:03:14;29.40;52.50
81895;DHT22;71358;45.642;13.758;2023-07-20T04:05:40;29.40;52.60
81895;DHT22;71358;45.642;13.758;2023-07-20T04:08:06;29.40;52.60
81895;DHT22;71358;45.642;13.758;2023-07-20T04:10:32;29.40;52.60
81895;DHT22;71358;45.642;13.758;2023-07-20T04:12:59;29.40;52.60
81895;DHT22;71358;45.642;13.758;2023-07-20T04:15:25;29.40;52.50
81895;DHT22;71358;45.642;13.758;2023-07-20T04:17:51;29.40;52.50
81895;DHT22;71358;45.642;13.758;2023-07-20T04:20:17;29.40;52.50
81895;DHT22;71358;45.642;13.758;2023-07-20T04:22:43;29.40;52.50
81895;DHT22;71358;45.642;13.758;2023-07-20T04:25:12;29.40;52.40
81895;DHT22;71358;45.642;13.758;2023-07-20T04:27:38;29.40;52.40
81895;DHT22;71358;45.642;13.758;2023-07-20T04:30:06;29.40;52.50
81895;DHT22;71358;45.642;13.758;2023-07-20T04:32:32;29.50;52.60
81895;DHT22;71358;45.642;13.758;2023-07-20T04:35:00;29.40;52.50
81895;DHT22;71358;45.642;13.758;2023-07-20T04:37:27;29.40;52.60
81895;DHT22;71358;45.642;13.758;2023-07-20T04:39:53;29.50;52.70
81895;DHT22;71358;45.642;13.758;2023-07-20T04:42:19;29.50;52.60
81895;DHT22;71358;45.642;13.758;2023-07-20T04:44:46;29.40;52.50
81895;DHT22;71358;45.642;13.758;2023-07-20T04:47:12;29.40;52.40
81895;DHT22;71358;45.642;13.758;2023-07-20T04:49:38;29.40;52.30
81895;DHT22;71358;45.642;13.758;2023-07-20T04:52:05;29.40;52.20
81895;DHT22;71358;45.642;13.758;2023-07-20T04:54:31;29.50;52.20
81895;DHT22;71358;45.642;13.758;2023-07-20T04:56:57;29.50;52.20
81895;DHT22;71358;45.642;13.758;2023-07-20T04:59:23;29.50;52.20
81895;DHT22;71358;45.642;13.758;2023-07-20T05:01:49;29.50;52.20
81895;DHT22;71358;45.642;13.758;2023-07-20T05:04:16;29.50;52.10
81895;DHT22;71358;45.642;13.758;2023-07-20T05:06:42;29.50;52.10
81895;DHT22;71358;45.642;13.758;2023-07-20T05:09:08;29.40;52.00
81895;DHT22;71358;45.642;13.758;2023-07-20T05:11:34;29.50;52.00
81895;DHT22;71358;45.642;13.758;2023-07-20T05:14:00;29.40;51.90
81895;DHT22;71358;45.642;13.758;2023-07-20T05:16:27;29.40;51.90
81895;DHT22;71358;45.642;13.758;2023-07-20T05:18:57;29.50;52.00
81895;DHT22;71358;45.642;13.758;2023-07-20T05:21:23;29.40;52.00
81895;DHT22;71358;45.642;13.758;2023-07-20T05:23:49;29.50;52.00
81895;DHT22;71358;45.642;13.758;2023-07-20T05:26:15;29.40;52.00
81895;DHT22;71358;45.642;13.758;2023-07-20T05:28:41;29.50;52.20
81895;DHT22;71358;45.642;13.758;2023-07-20T05:31:06;29.40;52.10
81895;DHT22;71358;45.642;13.758;2023-07-20T05:33:32;29.50;52.10
81895;DHT22;71358;45.642;13.758;2023-07-20T05:35:58;29.50;52.10
81895;DHT22;71358;45.642;13.758;2023-07-20T05:38:24;29.40;52.00
81895;DHT22;71358;45.642;13.758;2023-07-20T05:40:50;29.40;52.00
81895;DHT22;71358;45.642;13.758;2023-07-20T05:43:16;29.50;52.00
81895;DHT22;71358;45.642;13.758;2023-07-20T05:45:42;29.50;52.10
81895;DHT22;71358;45.642;13.758;2023-07-20T05:48:08;29.50;52.10
81895;DHT22;71358;45.642;13.758;2023-07-20T05:50:37;29.40;52.10
81895;DHT22;71358;45.642;13.758;2023-07-20T05:53:03;29.50;52.20
81895;DHT22;71358;45.642;13.758;2023-07-20T05:55:29;29.50;52.30
81895;DHT22;71358;45.642;13.758;2023-07-20T05:57:55;29.40;52.20
81895;DHT22;71358;45.642;13.758;2023-07-20T06:00:21;29.50;52.30
81895;DHT22;71358;45.642;13.758;2023-07-20T06:02:54;29.40;52.30
81895;DHT22;71358;45.642;13.758;2023-07-20T06:05:21;29.40;52.40
81895;DHT22;71358;45.642;13.758;2023-07-20T06:07:47;29.40;52.50
81895;DHT22;71358;45.642;13.758;2023-07-20T06:10:13;29.40;52.50
81895;DHT22;71358;45.642;13.758;2023-07-20T06:12:39;29.50;52.60
81895;DHT22;71358;45.642;13.758;2023-07-20T06:15:05;29.40;52.60
81895;DHT22;71358;45.642;13.758;2023-07-20T06:17:32;29.40;52.60
81895;DHT22;71358;45.642;13.758;2023-07-20T06:19:58;29.50;52.60
81895;DHT22;71358;45.642;13.758;2023-07-20T06:22:24;29.50;52.40
81895;DHT22;71358;45.642;13.758;2023-07-20T06:24:50;29.40;52.60
81895;DHT22;71358;45.642;13.758;2023-07-20T06:27:15;29.40;53.00
81895;DHT22;71358;45.642;13.758;2023-07-20T06:29:41;29.30;52.80
81895;DHT22;71358;45.642;13.758;2023-07-20T06:32:07;29.20;52.40
81895;DHT22;71358;45.642;13.758;2023-07-20T06:34:33;29.10;52.50
81895;DHT22;71358;45.642;13.758;2023-07-20T06:37:03;29.10;52.20
81895;DHT22;71358;45.642;13.758;2023-07-20T06:39:30;29.10;52.00
81895;DHT22;71358;45.642;13.758;2023-07-20T06:41:56;29.00;52.30
81895;DHT22;71358;45.642;13.758;2023-07-20T06:44:22;29.00;52.40
81895;DHT22;71358;45.642;13.758;2023-07-20T06:46:48;29.00;52.30
81895;DHT22;71358;45.642;13.758;2023-07-20T06:49:27;29.00;52.30
81895;DHT22;71358;45.642;13.758;2023-07-20T06:51:53;29.00;52.40
81895;DHT22;71358;45.642;13.758;2023-07-20T06:54:19;29.00;52.50
81895;DHT22;71358;45.642;13.758;2023-07-20T06:56:45;29.00;53.00
81895;DHT22;71358;45.642;13.758;2023-07-20T06:59:11;29.00;53.10
81895;DHT22;71358;45.642;13.758;2023-07-20T07:01:36;29.00;53.10
81895;DHT22;71358;45.642;13.758;2023-07-20T07:04:02;29.00;53.30
81895;DHT22;71358;45.642;13.758;2023-07-20T07:06:29;29.00;53.40
81895;DHT22;71358;45.642;13.758;2023-07-20T07:08:55;29.00;53.10
81895;DHT22;71358;45.642;13.758;2023-07-20T07:11:21;29.00;52.70
81895;DHT22;71358;45.642;13.758;2023-07-20T07:13:47;29.00;52.40
81895;DHT22;71358;45.642;13.758;2023-07-20T07:16:16;29.00;52.30
81895;DHT22;71358;45.642;13.758;2023-07-20T07:18:47;29.00;52.90
81895;DHT22;71358;45.642;13.758;2023-07-20T07:21:13;29.00;52.20
81895;DHT22;71358;45.642;13.758;2023-07-20T07:23:39;29.00;52.30
81895;DHT22;71358;45.642;13.758;2023-07-20T07:26:05;29.00;52.30
81895;DHT22;71358;45.642;13.758;2023-07-20T07:28:31;29.00;52.30
81895;DHT22;71358;45.642;13.758;2023-07-20T07:31:00;29.10;52.20
81895;DHT22;71358;45.642;13.758;2023-07-20T07:33:26;29.00;52.10
81895;DHT22;71358;45.642;13.758;2023-07-20T07:35:52;29.00;52.20
81895;DHT22;71358;45.642;13.758;2023-07-20T07:38:18;29.00;52.50
81895;DHT22;71358;45.642;13.758;2023-07-20T07:40:45;29.00;52.70
81895;DHT22;71358;45.642;13.758;2023-07-20T07:43:10;29.10;52.90
81895;DHT22;71358;45.642;13.758;2023-07-20T07:45:37;29.00;53.60
81895;DHT22;71358;45.642;13.758;2023-07-20T07:48:04;29.10;53.00
81895;DHT22;71358;45.642;13.758;2023-07-20T07:50:30;29.10;53.00
81895;DHT22;71358;45.642;13.758;2023-07-20T07:52:55;29.10;52.90
81895;DHT22;71358;45.642;13.758;2023-07-20T07:55:21;29.10;52.60
81895;DHT22;71358;45.642;13.758;2023-07-20T07:57:47;29.20;52.50
81895;DHT22;71358;45.642;13.758;2023-07-20T08:00:14;29.20;52.10
81895;DHT22;71358;45.642;13.758;2023-07-20T08:02:43;29.20;52.00
81895;DHT22;71358;45.642;13.758;2023-07-20T08:05:09;29.20;52.30
81895;DHT22;71358;45.642;13.758;2023-07-20T08:07:38;29.20;52.20
81895;DHT22;71358;45.642;13.758;2023-07-20T08:10:05;29.20;52.00
81895;DHT22;71358;45.642;13.758;2023-07-20T08:12:31;29.30;52.20
81895;DHT22;71358;45.642;13.758;2023-07-20T08:14:57;29.30;52.00
81895;DHT22;71358;45.642;13.758;2023-07-20T08:17:23;29.30;51.80
81895;DHT22;71358;45.642;13.758;2023-07-20T08:19:49;29.30;51.80
81895;DHT22;71358;45.642;13.758;2023-07-20T08:22:14;29.30;51.70
81895;DHT22;71358;45.642;13.758;2023-07-20T08:24:44;29.40;52.10
81895;DHT22;71358;45.642;13.758;2023-07-20T08:27:09;29.30;52.30
81895;DHT22;71358;45.642;13.758;2023-07-20T08:29:36;29.30;52.50
81895;DHT22;71358;45.642;13.758;2023-07-20T08:32:03;29.30;52.80
81895;DHT22;71358;45.642;13.758;2023-07-20T08:34:30;29.30;52.80
81895;DHT22;71358;45.642;13.758;2023-07-20T08:36:56;29.40;52.70
81895;DHT22;71358;45.642;13.758;2023-07-20T08:39:23;29.50;52.70
81895;DHT22;71358;45.642;13.758;2023-07-20T08:41:49;29.50;52.70
81895;DHT22;71358;45.642;13.758;2023-07-20T08:44:15;29.50;52.80
81895;DHT22;71358;45.642;13.758;2023-07-20T08:46:42;29.50;53.00
81895;DHT22;71358;45.642;13.758;2023-07-20T08:49:08;29.60;53.10
81895;DHT22;71358;45.642;13.758;2023-07-20T08:51:35;29.60;53.10
81895;DHT22;71358;45.642;13.758;2023-07-20T08:54:01;29.60;53.20
81895;DHT22;71358;45.642;13.758;2023-07-20T08:56:27;29.70;52.90
81895;DHT22;71358;45.642;13.758;2023-07-20T08:58:57;29.70;52.60
81895;DHT22;71358;45.642;13.758;2023-07-20T09:01:25;29.70;52.30
81895;DHT22;71358;45.642;13.758;2023-07-20T09:03:52;29.80;52.00
81895;DHT22;71358;45.642;13.758;2023-07-20T09:06:18;29.80;51.80
81895;DHT22;71358;45.642;13.758;2023-07-20T09:08:43;29.80;51.60
81895;DHT22;71358;45.642;13.758;2023-07-20T09:11:12;29.80;51.50
81895;DHT22;71358;45.642;13.758;2023-07-20T09:13:39;29.80;51.50
81895;DHT22;71358;45.642;13.758;2023-07-20T09:16:04;29.90;51.60
81895;DHT22;71358;45.642;13.758;2023-07-20T09:18:31;29.90;51.60
81895;DHT22;71358;45.642;13.758;2023-07-20T09:20:58;29.90;51.60
81895;DHT22;71358;45.642;13.758;2023-07-20T09:23:43;29.90;51.50
81895;DHT22;71358;45.642;13.758;2023-07-20T09:26:10;29.90;51.20
81895;DHT22;71358;45.642;13.758;2023-07-20T09:28:47;30.00;51.10
81895;DHT22;71358;45.642;13.758;2023-07-20T09:31:20;30.00;51.00
81895;DHT22;71358;45.642;13.758;2023-07-20T09:33:47;30.00;51.00
81895;DHT22;71358;45.642;13.758;2023-07-20T09:36:13;30.00;51.10
81895;DHT22;71358;45.642;13.758;2023-07-20T09:38:42;30.00;51.20
81895;DHT22;71358;45.642;13.758;2023-07-20T09:41:15;30.00;51.20
81895;DHT22;71358;45.642;13.758;2023-07-20T09:43:41;30.00;51.10
81895;DHT22;71358;45.642;13.758;2023-07-20T09:46:07;30.00;51.10
81895;DHT22;71358;45.642;13.758;2023-07-20T09:48:33;30.00;51.10
81895;DHT22;71358;45.642;13.758;2023-07-20T09:50:59;30.00;51.30
81895;DHT22;71358;45.642;13.758;2023-07-20T09:53:27;30.00;51.40
81895;DHT22;71358;45.642;13.758;2023-07-20T09:55:54;30.00;51.50
81895;DHT22;71358;45.642;13.758;2023-07-20T09:58:21;30.00;51.50
81895;DHT22;71358;45.642;13.758;2023-07-20T10:00:48;30.00;51.60
81895;DHT22;71358;45.642;13.758;2023-07-20T10:03:19;30.00;51.80
81895;DHT22;71358;45.642;13.758;2023-07-20T10:05:54;30.00;52.00
81895;DHT22;71358;45.642;13.758;2023-07-20T10:08:21;30.00;52.20
81895;DHT22;71358;45.642;13.758;2023-07-20T10:10:49;30.00;52.40
81895;DHT22;71358;45.642;13.758;2023-07-20T10:13:21;30.00;52.70
81895;DHT22;71358;45.642;13.758;2023-07-20T10:15:53;30.00;52.70
81895;DHT22;71358;45.642;13.758;2023-07-20T10:18:50;30.00;52.90
81895;DHT22;71358;45.642;13.758;2023-07-20T10:21:17;30.00;53.10
81895;DHT22;71358;45.642;13.758;2023-07-20T10:23:45;30.00;53.40
81895;DHT22;71358;45.642;13.758;2023-07-20T10:26:11;30.00;53.60
81895;DHT22;71358;45.642;13.758;2023-07-20T10:28:38;30.00;53.60
81895;DHT22;71358;45.642;13.758;2023-07-20T10:31:07;30.00;53.80
81895;DHT22;71358;45.642;13.758;2023-07-20T10:33:34;30.00;54.00
81895;DHT22;71358;45.642;13.758;2023-07-20T10:36:04;30.00;54.10
81895;DHT22;71358;45.642;13.758;2023-07-20T10:41:32;30.10;54.20
81895;DHT22;71358;45.642;13.758;2023-07-20T10:44:01;30.10;54.30
81895;DHT22;71358;45.642;13.758;2023-07-20T10:49:06;30.10;55.00
81895;DHT22;71358;45.642;13.758;2023-07-20T10:51:46;30.10;55.40
81895;DHT22;71358;45.642;13.758;2023-07-20T10:56:44;30.10;56.30
81895;DHT22;71358;45.642;13.758;2023-07-20T11:01:59;30.10;57.10
81895;DHT22;71358;45.642;13.758;2023-07-20T11:04:47;30.10;57.30
81895;DHT22;71358;45.642;13.758;2023-07-20T11:07:23;30.10;57.50
81895;DHT22;71358;45.642;13.758;2023-07-20T11:10:15;30.10;57.70
81895;DHT22;71358;45.642;13.758;2023-07-20T11:12:41;30.20;58.10
81895;DHT22;71358;45.642;13.758;2023-07-20T11:15:07;30.10;58.20
81895;DHT22;71358;45.642;13.758;2023-07-20T11:17:33;30.10;60.60
81895;DHT22;71358;45.642;13.758;2023-07-20T11:20:00;30.10;61.90
81895;DHT22;71358;45.642;13.758;2023-07-20T11:22:27;30.00;62.60
81895;DHT22;71358;45.642;13.758;2023-07-20T11:24:57;30.00;62.80
81895;DHT22;71358;45.642;13.758;2023-07-20T11:27:23;29.90;63.20
81895;DHT22;71358;45.642;13.758;2023-07-20T16:27:20;30.80;64.70
81895;DHT22;71358;45.642;13.758;2023-07-20T16:30:05;30.90;65.10
81895;DHT22;71358;45.642;13.758;2023-07-20T16:32:49;31.00;64.50
81895;DHT22;71358;45.642;13.758;2023-07-20T16:35:37;31.00;64.00
81895;DHT22;71358;45.642;13.758;2023-07-20T16:38:21;31.10;64.10
81895;DHT22;71358;45.642;13.758;2023-07-20T16:41:06;31.10;63.70
81895;DHT22;71358;45.642;13.758;2023-07-20T16:43:53;31.10;63.40
81895;DHT22;71358;45.642;13.758;2023-07-20T16:46:38;31.10;63.50
81895;DHT22;71358;45.642;13.758;2023-07-20T16:49:22;31.00;63.90
81895;DHT22;71358;45.642;13.758;2023-07-20T16:52:06;30.90;64.20
81895;DHT22;71358;45.642;13.758;2023-07-20T16:54:50;30.90;63.60
81895;DHT22;71358;45.642;13.758;2023-07-20T16:57:34;30.90;62.90
81895;DHT22;71358;45.642;13.758;2023-07-20T17:00:19;30.90;62.50
81895;DHT22;71358;45.642;13.758;2023-07-20T17:03:03;30.90;61.10
81895;DHT22;71358;45.642;13.758;2023-07-20T17:05:47;30.80;60.90
81895;DHT22;71358;45.642;13.758;2023-07-20T17:08:31;30.80;60.90
81895;DHT22;71358;45.642;13.758;2023-07-20T17:11:16;30.70;60.90
81895;DHT22;71358;45.642;13.758;2023-07-20T17:14:00;30.70;61.20
81895;DHT22;71358;45.642;13.758;2023-07-20T17:16:44;30.60;60.80
81895;DHT22;71358;45.642;13.758;2023-07-20T17:19:29;30.60;61.20
81895;DHT22;71358;45.642;13.758;2023-07-20T17:22:13;30.60;61.40
81895;DHT22;71358;45.642;13.758;2023-07-20T17:24:58;30.50;61.10
81895;DHT22;71358;45.642;13.758;2023-07-20T17:27:42;30.60;61.20
81895;DHT22;71358;45.642;13.758;2023-07-20T17:30:26;30.50;61.10
81895;DHT22;71358;45.642;13.758;2023-07-20T17:33:12;30.50;61.30
81895;DHT22;71358;45.642;13.758;2023-07-20T17:35:59;30.50;61.30
81895;DHT22;71358;45.642;13.758;2023-07-20T17:38:43;30.50;61.40
81895;DHT22;71358;45.642;13.758;2023-07-20T17:41:27;30.50;61.70
81895;DHT22;71358;45.642;13.758;2023-07-20T17:44:11;30.50;61.80
81895;DHT22;71358;45.642;13.758;2023-07-20T17:46:56;30.50;61.90
81895;DHT22;71358;45.642;13.758;2023-07-20T17:49:40;30.50;61.90
81895;DHT22;71358;45.642;13.758;2023-07-20T17:52:24;30.50;61.90
81895;DHT22;71358;45.642;13.758;2023-07-20T17:55:08;30.50;62.10
81895;DHT22;71358;45.642;13.758;2023-07-20T17:57:53;30.40;62.20
81895;DHT22;71358;45.642;13.758;2023-07-20T18:00:37;30.40;62.20
81895;DHT22;71358;45.642;13.758;2023-07-20T18:03:21;30.40;62.20
81895;DHT22;71358;45.642;13.758;2023-07-20T18:06:06;30.40;62.20
81895;DHT22;71358;45.642;13.758;2023-07-20T18:08:50;30.50;62.30
81895;DHT22;71358;45.642;13.758;2023-07-20T18:11:35;30.50;62.40
81895;DHT22;71358;45.642;13.758;2023-07-20T18:14:19;30.50;62.40
81895;DHT22;71358;45.642;13.758;2023-07-20T18:17:03;30.40;62.40
81895;DHT22;71358;45.642;13.758;2023-07-20T18:19:47;30.40;62.30
81895;DHT22;71358;45.642;13.758;2023-07-20T18:22:33;30.50;62.40
81895;DHT22;71358;45.642;13.758;2023-07-20T18:25:18;30.50;62.70
81895;DHT22;71358;45.642;13.758;2023-07-20T18:28:02;30.50;63.20
81895;DHT22;71358;45.642;13.758;2023-07-20T18:30:47;30.50;63.60
81895;DHT22;71358;45.642;13.758;2023-07-20T18:33:31;30.50;63.90
81895;DHT22;71358;45.642;13.758;2023-07-20T18:36:16;30.50;64.10
81895;DHT22;71358;45.642;13.758;2023-07-20T18:39:00;30.50;64.20
81895;DHT22;71358;45.642;13.758;2023-07-20T18:41:44;30.50;64.30
81895;DHT22;71358;45.642;13.758;2023-07-20T18:44:28;30.40;64.40
81895;DHT22;71358;45.642;13.758;2023-07-20T18:47:13;30.50;64.40
81895;DHT22;71358;45.642;13.758;2023-07-20T18:49:57;30.40;64.40
81895;DHT22;71358;45.642;13.758;2023-07-20T18:52:41;30.40;64.50
81895;DHT22;71358;45.642;13.758;2023-07-20T18:55:26;30.40;64.50
81895;DHT22;71358;45.642;13.758;2023-07-20T18:58:12;30.40;64.50
81895;DHT22;71358;45.642;13.758;2023-07-20T19:00:59;30.50;64.60
81895;DHT22;71358;45.642;13.758;2023-07-20T19:03:44;30.40;64.50
81895;DHT22;71358;45.642;13.758;2023-07-20T19:06:28;30.40;64.50
81895;DHT22;71358;45.642;13.758;2023-07-20T19:09:12;30.50;64.50
81895;DHT22;71358;45.642;13.758;2023-07-20T19:11:56;30.50;64.60
81895;DHT22;71358;45.642;13.758;2023-07-20T19:14:41;30.50;64.60
81895;DHT22;71358;45.642;13.758;2023-07-20T19:17:27;30.40;64.50
81895;DHT22;71358;45.642;13.758;2023-07-20T19:20:13;30.50;64.60
81895;DHT22;71358;45.642;13.758;2023-07-20T19:22:59;30.50;64.70
81895;DHT22;71358;45.642;13.758;2023-07-20T19:25:43;30.50;64.70
81895;DHT22;71358;45.642;13.758;2023-07-20T19:28:28;30.50;64.80
81895;DHT22;71358;45.642;13.758;2023-07-20T19:31:12;30.50;64.80
81895;DHT22;71358;45.642;13.758;2023-07-20T19:33:56;30.50;64.90
81895;DHT22;71358;45.642;13.758;2023-07-20T19:36:40;30.50;64.90
81895;DHT22;71358;45.642;13.758;2023-07-20T19:39:26;30.50;65.00
81895;DHT22;71358;45.642;13.758;2023-07-20T19:42:10;30.50;65.10
81895;DHT22;71358;45.642;13.758;2023-07-20T19:44:54;30.50;65.20
81895;DHT22;71358;45.642;13.758;2023-07-20T19:47:38;30.50;65.30
81895;DHT22;71358;45.642;13.758;2023-07-20T19:50:22;30.50;65.30
81895;DHT22;71358;45.642;13.758;2023-07-20T19:53:07;30.40;65.40
81895;DHT22;71358;45.642;13.758;2023-07-20T19:55:55;30.50;65.40
81895;DHT22;71358;45.642;13.758;2023-07-20T19:58:41;30.40;65.50
81895;DHT22;71358;45.642;13.758;2023-07-20T20:01:25;30.40;65.60
81895;DHT22;71358;45.642;13.758;2023-07-20T20:04:10;30.40;65.70
81895;DHT22;71358;45.642;13.758;2023-07-20T20:06:54;30.40;65.80
81895;DHT22;71358;45.642;13.758;2023-07-20T20:09:38;30.40;66.10
81895;DHT22;71358;45.642;13.758;2023-07-20T20:12:25;30.40;66.20
81895;DHT22;71358;45.642;13.758;2023-07-20T20:15:09;30.40;66.30
81895;DHT22;71358;45.642;13.758;2023-07-20T20:17:54;30.40;66.40
81895;DHT22;71358;45.642;13.758;2023-07-20T20:20:38;30.40;66.60
81895;DHT22;71358;45.642;13.758;2023-07-20T20:23:23;30.40;66.70
81895;DHT22;71358;45.642;13.758;2023-07-20T20:26:07;30.40;66.80
81895;DHT22;71358;45.642;13.758;2023-07-20T20:28:52;30.40;66.90
81895;DHT22;71358;45.642;13.758;2023-07-20T20:31:37;30.40;66.90
81895;DHT22;71358;45.642;13.758;2023-07-20T20:34:22;30.40;66.90
81895;DHT22;71358;45.642;13.758;2023-07-20T20:37:06;30.40;66.80
81895;DHT22;71358;45.642;13.758;2023-07-20T20:39:50;30.40;66.60
81895;DHT22;71358;45.642;13.758;2023-07-20T20:42:35;30.40;65.80
81895;DHT22;71358;45.642;13.758;2023-07-20T20:45:20;30.40;65.40
81895;DHT22;71358;45.642;13.758;2023-07-20T20:48:04;30.40;64.70
81895;DHT22;71358;45.642;13.758;2023-07-20T20:50:49;30.40;64.00
81895;DHT22;71358;45.642;13.758;2023-07-20T20:53:34;30.50;63.50
81895;DHT22;71358;45.642;13.758;2023-07-20T20:56:18;30.50;63.10
81895;DHT22;71358;45.642;13.758;2023-07-20T20:59:03;30.50;62.60
81895;DHT22;71358;45.642;13.758;2023-07-20T21:01:48;30.50;62.10